createdAt,value
2019-02-16T00:02:15.065Z,7.37
2019-02-16T00:05:19.798Z,8.67
2019-02-16T00:08:24.079Z,8.80
2019-02-16T00:11:28.357Z,9.07
2019-02-16T00:14:32.767Z,9.27
2019-02-16T00:17:37.081Z,14.77
2019-02-16T00:20:41.369Z,8.77
2019-02-16T00:23:45.683Z,10.60
2019-02-16T00:26:50.115Z,8.97
2019-02-16T00:29:54.373Z,8.53
2019-02-16T00:32:58.769Z,10.53
2019-02-16T00:36:03.231Z,10.97
2019-02-16T00:39:07.896Z,10.90
2019-02-16T00:42:15.216Z,9.70
2019-02-16T00:45:19.501Z,6.77
2019-02-16T00:48:23.814Z,7.60
2019-02-16T00:51:28.283Z,9.23
2019-02-16T00:54:34.234Z,8.17
2019-02-16T00:57:39.996Z,7.60
2019-02-16T01:00:44.313Z,9.63
2019-02-16T01:03:48.739Z,8.43
2019-02-16T01:06:53.085Z,9.17
2019-02-16T01:09:57.645Z,10.57
2019-02-16T01:13:01.917Z,10.37
2019-02-16T01:16:06.315Z,9.03
2019-02-16T01:19:10.616Z,9.40
2019-02-16T01:22:16.642Z,10.43
2019-02-16T01:25:20.940Z,10.77
2019-02-16T01:28:25.405Z,11.70
2019-02-16T01:31:29.710Z,14.83
2019-02-16T01:34:34.078Z,16.13
2019-02-16T01:37:41.343Z,17.17
2019-02-16T01:40:45.647Z,17.00
2019-02-16T01:43:50.191Z,13.50
2019-02-16T01:46:55.881Z,10.17
2019-02-16T01:50:00.326Z,10.20
2019-02-16T01:53:04.766Z,11.33
2019-02-16T01:56:11.423Z,8.20
2019-02-16T01:59:15.855Z,12.03
2019-02-16T02:02:22.237Z,12.80
2019-02-16T02:05:26.583Z,11.67
2019-02-16T02:08:30.881Z,11.47
2019-02-16T02:11:37.740Z,12.17
2019-02-16T02:14:42.182Z,9.57
2019-02-16T02:17:46.498Z,9.93
2019-02-16T02:20:50.806Z,13.80
2019-02-16T02:23:55.114Z,11.33
2019-02-16T02:26:59.839Z,10.10
2019-02-16T02:30:04.281Z,8.50
2019-02-16T02:33:09.630Z,11.70
2019-02-16T02:36:13.941Z,11.10
2019-02-16T02:39:18.451Z,10.70
2019-02-16T02:42:26.170Z,11.10
2019-02-16T02:45:30.467Z,12.53
2019-02-16T02:48:34.792Z,12.47
2019-02-16T02:51:39.424Z,12.37
2019-02-16T02:54:45.603Z,13.30
2019-02-16T02:57:49.931Z,16.37
2019-02-16T03:00:54.325Z,16.17
2019-02-16T03:03:58.718Z,16.87
2019-02-16T03:07:03.058Z,14.90
2019-02-16T03:10:07.679Z,21.87
2019-02-16T03:13:11.965Z,20.17
2019-02-16T03:16:16.699Z,18.87
2019-02-16T03:19:21.014Z,14.63
2019-02-16T03:22:26.906Z,15.37
2019-02-16T03:25:31.420Z,9.23
2019-02-16T03:28:55.676Z,13.13
2019-02-16T03:32:17.519Z,10.57
2019-02-16T03:36:15.319Z,9.83
2019-02-16T03:39:35.691Z,10.97
2019-02-16T03:42:42.315Z,8.80
2019-02-16T03:45:46.657Z,10.03
2019-02-16T03:48:51.060Z,9.77
2019-02-16T03:51:55.372Z,9.17
2019-02-16T03:54:59.700Z,15.47
2019-02-16T03:58:06.966Z,13.07
2019-02-16T04:01:13.991Z,12.73
2019-02-16T04:04:18.372Z,12.33
2019-02-16T04:07:25.752Z,14.57
2019-02-16T04:10:33.072Z,12.50
2019-02-16T04:13:37.436Z,13.20
2019-02-16T04:16:41.765Z,14.43
2019-02-16T04:19:46.059Z,17.47
2019-02-16T04:22:52.478Z,16.60
2019-02-16T04:25:56.940Z,15.27
2019-02-16T04:29:01.231Z,12.10
2019-02-16T04:32:05.512Z,12.77
2019-02-16T04:35:09.849Z,12.53
2019-02-16T04:38:16.171Z,13.20
2019-02-16T04:41:20.153Z,13.33
2019-02-16T04:44:24.590Z,13.77
2019-02-16T04:47:28.884Z,10.97
2019-02-16T04:50:33.163Z,11.30
2019-02-16T04:53:37.488Z,10.67
2019-02-16T04:56:41.767Z,10.33
2019-02-16T04:59:46.028Z,10.30
2019-02-16T05:02:50.323Z,11.50
2019-02-16T05:05:54.815Z,9.83
2019-02-16T05:08:59.274Z,8.97
2019-02-16T05:12:05.378Z,11.77
2019-02-16T05:15:09.807Z,11.97
2019-02-16T05:18:15.872Z,12.07
2019-02-16T05:21:20.168Z,10.90
2019-02-16T05:24:24.522Z,10.67
2019-02-16T05:27:31.574Z,10.63
2019-02-16T05:30:35.866Z,8.83
2019-02-16T05:33:41.528Z,12.57
2019-02-16T05:36:45.843Z,9.77
2019-02-16T05:39:51.866Z,11.87
2019-02-16T05:42:56.173Z,9.73
2019-02-16T05:46:00.505Z,9.83
2019-02-16T05:49:07.593Z,9.90
2019-02-16T05:52:11.961Z,9.53
2019-02-16T05:55:16.229Z,11.03
2019-02-16T05:58:23.196Z,11.10
2019-02-16T06:01:27.479Z,10.00
2019-02-16T06:04:31.858Z,10.47
2019-02-16T06:07:36.273Z,10.93
2019-02-16T06:10:40.578Z,11.00
2019-02-16T06:13:44.917Z,10.97
2019-02-16T06:16:49.205Z,11.80
2019-02-16T06:19:53.483Z,10.37
2019-02-16T06:23:04.287Z,10.77
2019-02-16T06:26:06.274Z,11.67
2019-02-16T06:29:10.621Z,10.00
2019-02-16T06:32:14.945Z,9.20
2019-02-16T06:35:50.581Z,10.97
2019-02-16T06:38:55.088Z,9.50
2019-02-16T06:42:01.342Z,11.37
2019-02-16T06:45:07.221Z,12.37
2019-02-16T06:48:11.525Z,11.93
2019-02-16T06:51:16.161Z,12.00
2019-02-16T06:54:20.472Z,10.30
2019-02-16T06:57:28.243Z,11.70
2019-02-16T07:00:32.727Z,9.73
2019-02-16T07:03:37.034Z,11.63
2019-02-16T07:06:41.384Z,10.20
2019-02-16T07:09:45.791Z,11.53
2019-02-16T07:12:52.892Z,15.53
2019-02-16T07:16:25.589Z,10.20
2019-02-16T07:19:33.121Z,12.53
2019-02-16T07:22:37.534Z,14.90
2019-02-16T07:25:42.877Z,12.10
2019-02-16T07:28:47.111Z,11.73
2019-02-16T07:31:53.472Z,11.60
2019-02-16T07:34:57.755Z,10.60
2019-02-16T07:38:02.149Z,13.53
2019-02-16T07:41:06.583Z,12.77
2019-02-16T07:44:45.122Z,13.33
2019-02-16T07:48:08.488Z,14.57
2019-02-16T07:51:31.712Z,14.17
2019-02-16T07:55:00.932Z,14.23
2019-02-16T07:58:11.783Z,12.17
2019-02-16T08:01:35.023Z,13.30
2019-02-16T08:05:01.329Z,12.93
2019-02-16T08:08:20.050Z,13.83
2019-02-16T08:11:41.475Z,14.37
2019-02-16T08:15:23.150Z,18.20
2019-02-16T08:18:39.564Z,14.30
2019-02-16T08:22:09.112Z,12.73
2019-02-16T08:25:39.853Z,13.27
2019-02-16T08:29:02.100Z,12.60
2019-02-16T08:32:31.405Z,14.40
2019-02-16T08:35:54.766Z,17.37
2019-02-16T08:39:19.728Z,20.87
2019-02-16T08:43:01.189Z,17.13
2019-02-16T08:46:23.091Z,15.40
2019-02-16T08:49:46.223Z,17.97
2019-02-16T08:53:18.586Z,18.10
2019-02-16T08:56:41.143Z,17.77
2019-02-16T08:59:57.659Z,18.23
2019-02-16T09:03:22.762Z,22.27
2019-02-16T09:06:57.420Z,20.20
2019-02-16T09:10:11.563Z,18.83
2019-02-16T09:13:40.981Z,20.43
2019-02-16T09:17:03.073Z,20.97
2019-02-16T09:20:17.555Z,21.50
2019-02-16T09:23:44.541Z,21.30
2019-02-16T09:27:06.928Z,21.57
2019-02-16T09:30:34.004Z,23.63
2019-02-16T09:33:46.205Z,24.73
2019-02-16T09:37:06.040Z,24.50
2019-02-16T09:40:35.112Z,24.33
2019-02-16T09:43:51.092Z,24.37
2019-02-16T09:47:17.436Z,24.83
2019-02-16T09:50:30.373Z,24.20
2019-02-16T09:54:08.394Z,28.23
2019-02-16T09:57:26.587Z,22.57
2019-02-16T10:00:48.169Z,25.90
2019-02-16T10:04:11.357Z,27.10
2019-02-16T10:07:46.943Z,28.03
2019-02-16T10:11:13.617Z,28.63
2019-02-16T10:14:38.161Z,24.10
2019-02-16T10:17:54.867Z,24.17
2019-02-16T10:21:21.376Z,24.33
2019-02-16T10:24:37.796Z,23.23
2019-02-16T10:27:56.101Z,26.10
2019-02-16T10:31:19.432Z,24.23
2019-02-16T10:34:42.967Z,24.80
2019-02-16T10:38:24.384Z,24.47
2019-02-16T10:41:46.427Z,25.93
2019-02-16T10:45:06.179Z,23.87
2019-02-16T10:48:32.445Z,22.10
2019-02-16T10:51:53.854Z,25.87
2019-02-16T10:55:22.977Z,25.23
2019-02-16T10:58:55.263Z,20.73
2019-02-16T11:02:17.269Z,24.87
2019-02-16T11:05:43.668Z,25.27
2019-02-16T11:09:02.742Z,25.17
2019-02-16T11:12:26.122Z,24.53
2019-02-16T11:15:45.727Z,26.63
2019-02-16T11:19:04.546Z,24.80
2019-02-16T11:22:17.667Z,28.90
2019-02-16T11:25:39.553Z,26.67
2019-02-16T11:29:05.929Z,28.10
2019-02-16T11:32:38.549Z,28.83
2019-02-16T11:36:08.195Z,26.53
2019-02-16T11:39:44.787Z,27.80
2019-02-16T11:43:11.102Z,27.60
2019-02-16T11:46:40.614Z,25.57
2019-02-16T11:50:16.455Z,25.60
2019-02-16T11:54:03.022Z,26.17
2019-02-16T11:57:32.208Z,25.00
2019-02-16T12:00:58.210Z,26.20
2019-02-16T12:04:19.463Z,24.90
2019-02-16T12:07:43.704Z,24.97
2019-02-16T12:11:10.074Z,26.40
2019-02-16T12:14:32.036Z,26.90
2019-02-16T12:17:53.866Z,27.83
2019-02-16T12:21:17.195Z,27.53
2019-02-16T12:25:02.952Z,26.30
2019-02-16T12:28:11.659Z,25.93
2019-02-16T12:31:53.406Z,25.83
2019-02-16T12:35:19.325Z,23.20
2019-02-16T12:38:41.323Z,27.03
2019-02-16T12:42:03.507Z,26.43
2019-02-16T12:45:23.382Z,27.50
2019-02-16T12:48:52.836Z,23.37
2019-02-16T12:55:43.032Z,27.10
2019-02-16T12:58:54.983Z,27.73
2019-02-16T13:02:17.011Z,36.43
2019-02-16T13:05:32.020Z,25.67
2019-02-16T13:08:52.039Z,28.73
2019-02-16T13:12:14.173Z,33.30
2019-02-16T13:15:52.533Z,30.27
2019-02-16T13:19:06.295Z,28.00
2019-02-16T13:22:28.370Z,33.37
2019-02-16T13:25:54.702Z,35.27
2019-02-16T13:29:14.236Z,33.57
2019-02-16T13:32:52.928Z,31.47
2019-02-16T13:36:18.987Z,33.70
2019-02-16T13:39:33.648Z,32.13
2019-02-16T13:42:53.071Z,35.30
2019-02-16T13:46:34.854Z,40.33
2019-02-16T13:49:44.771Z,40.73
2019-02-16T13:53:06.259Z,33.03
2019-02-16T13:56:37.798Z,34.03
2019-02-16T14:00:06.736Z,35.40
2019-02-16T14:03:38.191Z,36.57
2019-02-16T14:06:50.831Z,36.37
2019-02-16T14:10:17.494Z,34.90
2019-02-16T14:13:31.001Z,37.43
2019-02-16T14:16:44.773Z,38.37
2019-02-16T14:19:49.181Z,35.07
2019-02-16T14:22:53.489Z,39.37
2019-02-16T14:25:57.889Z,38.30
2019-02-16T14:29:02.333Z,41.80
2019-02-16T14:32:06.634Z,33.30
2019-02-16T14:35:12.491Z,37.17
2019-02-16T14:38:37.156Z,38.27
2019-02-16T14:41:41.465Z,40.10
2019-02-16T14:44:45.783Z,42.90
2019-02-16T14:47:50.125Z,38.83
2019-02-16T14:50:54.465Z,44.53
2019-02-16T14:53:58.760Z,38.50
2019-02-16T14:57:03.054Z,38.70
2019-02-16T15:00:08.318Z,46.97
2019-02-16T15:03:12.782Z,40.30
2019-02-16T15:06:17.106Z,45.40
2019-02-16T15:09:21.503Z,48.00
2019-02-16T15:12:25.896Z,40.87
2019-02-16T15:15:30.312Z,40.57
2019-02-16T15:18:35.940Z,39.90
2019-02-16T15:21:40.301Z,43.47
2019-02-16T15:24:44.714Z,46.57
2019-02-16T15:27:49.088Z,41.73
2019-02-16T15:30:53.399Z,47.37
2019-02-16T15:33:57.705Z,44.47
2019-02-16T15:37:02.051Z,42.70
2019-02-16T15:40:06.678Z,42.73
2019-02-16T15:43:11.071Z,47.20
2019-02-16T15:46:15.386Z,43.13
2019-02-16T15:49:19.802Z,42.43
2019-02-16T15:52:24.127Z,44.20
2019-02-16T15:55:29.512Z,41.77
2019-02-16T15:58:33.846Z,46.20
2019-02-16T16:01:38.237Z,47.37
2019-02-16T16:04:42.587Z,45.67
2019-02-16T16:07:56.497Z,52.73
2019-02-16T16:11:08.230Z,48.13
2019-02-16T16:14:28.660Z,47.83
2019-02-16T16:17:57.671Z,52.80
2019-02-16T16:21:23.720Z,53.13
2019-02-16T16:25:02.527Z,56.30
2019-02-16T16:28:24.728Z,53.93
2019-02-16T16:31:50.934Z,55.90
2019-02-16T16:38:19.620Z,58.70
2019-02-16T16:41:36.749Z,60.07
2019-02-16T16:44:58.846Z,48.17
2019-02-16T16:48:13.432Z,43.77
2019-02-16T16:51:33.523Z,50.47
2019-02-16T16:54:54.471Z,52.27
2019-02-16T16:58:16.674Z,47.97
2019-02-16T17:01:38.693Z,52.33
2019-02-16T17:05:05.049Z,58.87
2019-02-16T17:08:17.367Z,59.80
2019-02-16T17:11:43.511Z,54.63
2019-02-16T17:15:12.329Z,51.43
2019-02-16T17:18:29.090Z,47.77
2019-02-16T17:22:07.513Z,50.87
2019-02-16T17:25:30.984Z,49.83
2019-02-16T17:28:50.318Z,51.80
2019-02-16T17:32:26.022Z,48.93
2019-02-16T17:35:39.336Z,49.80
2019-02-16T17:39:01.209Z,54.30
2019-02-16T17:42:30.679Z,50.10
2019-02-16T17:46:01.518Z,58.23
2019-02-16T17:49:17.123Z,45.87
2019-02-16T17:52:39.197Z,54.47
2019-02-16T17:56:02.481Z,45.83
2019-02-16T17:59:24.262Z,49.93
2019-02-16T18:02:53.613Z,52.63
2019-02-16T18:06:15.528Z,52.10
2019-02-16T18:09:37.647Z,51.83
2019-02-16T18:12:58.667Z,49.70
2019-02-16T18:16:19.353Z,51.97
2019-02-16T18:19:42.251Z,57.27
2019-02-16T18:22:55.426Z,53.93
2019-02-16T18:26:10.195Z,53.73
2019-02-16T18:29:26.079Z,56.37
2019-02-16T18:32:50.309Z,63.23
2019-02-16T18:36:03.921Z,56.20
2019-02-16T18:39:38.034Z,57.53
2019-02-16T18:43:01.922Z,60.53
2019-02-16T18:46:25.249Z,54.80
2019-02-16T18:50:06.946Z,53.27
2019-02-16T18:53:31.064Z,57.83
2019-02-16T18:56:54.344Z,56.73
2019-02-16T19:00:08.201Z,57.07
2019-02-16T19:03:31.961Z,54.03
2019-02-16T19:06:55.237Z,53.53
2019-02-16T19:10:33.788Z,61.37
2019-02-16T19:14:06.115Z,49.37
2019-02-16T19:17:29.486Z,48.60
2019-02-16T19:20:58.812Z,53.40
2019-02-16T19:24:21.007Z,54.53
2019-02-16T19:27:42.953Z,55.33
2019-02-16T19:31:26.759Z,53.40
2019-02-16T19:34:52.894Z,52.10
2019-02-16T19:38:28.439Z,51.50
2019-02-16T19:42:07.076Z,59.93
2019-02-16T19:45:42.659Z,52.13
2019-02-16T19:49:06.195Z,54.70
2019-02-16T19:52:29.589Z,58.30
2019-02-16T19:55:56.030Z,69.73
2019-02-16T19:59:26.963Z,62.70
2019-02-16T20:02:49.364Z,61.60
2019-02-16T20:06:25.298Z,59.00
2019-02-16T20:09:48.574Z,58.27
2019-02-16T20:13:13.115Z,63.67
2019-02-16T20:16:35.464Z,63.30
2019-02-16T20:20:04.887Z,61.23
2019-02-16T20:23:39.675Z,54.47
2019-02-16T20:27:03.290Z,60.50
2019-02-16T20:30:25.670Z,56.83
2019-02-16T20:33:39.313Z,60.43
2019-02-16T20:37:04.958Z,53.97
2019-02-16T20:40:24.193Z,64.10
2019-02-16T20:43:41.941Z,58.40
2019-02-16T20:47:14.715Z,60.87
2019-02-16T20:50:41.151Z,58.90
2019-02-16T20:54:04.424Z,60.27
2019-02-16T20:57:47.086Z,56.60
2019-02-16T21:01:05.241Z,54.43
2019-02-16T21:04:20.351Z,50.00
2019-02-16T21:07:52.625Z,50.07
2019-02-16T21:11:18.399Z,53.53
2019-02-16T21:14:32.342Z,53.03
2019-02-16T21:18:00.647Z,53.90
2019-02-16T21:21:22.474Z,57.77
2019-02-16T21:24:57.806Z,57.97
2019-02-16T21:28:11.566Z,58.10
2019-02-16T21:31:37.991Z,58.50
2019-02-16T21:35:00.131Z,57.77
2019-02-16T21:38:22.723Z,56.80
2019-02-16T21:41:44.539Z,53.70
2019-02-16T21:45:03.558Z,54.93
2019-02-16T21:48:32.766Z,56.20
2019-02-16T21:52:02.153Z,60.20
2019-02-16T21:55:31.988Z,58.87
2019-02-16T21:58:54.003Z,57.30
2019-02-16T22:02:16.126Z,53.67
2019-02-16T22:05:42.536Z,61.03
2019-02-16T22:09:03.422Z,64.07
2019-02-16T22:12:17.194Z,64.07
2019-02-16T22:15:21.731Z,64.93
2019-02-16T22:18:26.041Z,59.70
2019-02-16T22:21:33.357Z,59.03
2019-02-16T22:24:37.688Z,60.77
2019-02-16T22:27:42.083Z,59.70
2019-02-16T22:30:47.002Z,62.67
2019-02-16T22:33:51.421Z,64.17
2019-02-16T22:36:55.871Z,68.07
2019-02-16T22:40:00.329Z,68.03
2019-02-16T22:43:04.765Z,60.10
2019-02-16T22:46:09.216Z,67.10
2019-02-16T22:49:14.688Z,64.73
2019-02-16T22:52:19.099Z,63.47
2019-02-16T22:55:25.051Z,66.83
2019-02-16T22:58:29.458Z,64.43
2019-02-16T23:01:34.238Z,66.67
2019-02-16T23:04:38.571Z,70.93
2019-02-16T23:07:42.954Z,71.07
2019-02-16T23:10:47.378Z,65.53
2019-02-16T23:13:51.816Z,68.67
2019-02-16T23:16:56.148Z,63.00
2019-02-16T23:20:00.573Z,68.70
2019-02-16T23:23:05.166Z,70.43
2019-02-16T23:26:12.062Z,65.67
2019-02-16T23:29:16.490Z,72.17
2019-02-16T23:32:22.195Z,69.10
2019-02-16T23:35:26.612Z,64.93
2019-02-16T23:38:30.978Z,64.93
2019-02-16T23:41:35.287Z,71.70
2019-02-16T23:44:39.674Z,63.37
2019-02-16T23:47:43.977Z,64.77
2019-02-16T23:50:48.363Z,68.43
2019-02-16T23:53:52.804Z,76.40
2019-02-16T23:56:57.078Z,70.97
